Weather at Måløv Airfield UL

Public forecast

Using degrees Celsius for public forecast. Weather courtesy of forecast.io.

Closest aviation weather report (METAR) to Måløv Airfield UL

Closest report is Copenhagen Roskilde Airport, 11.2 nm (20.7 km) SSW.

2024/05/30 10:50 (retrieved 16 minutes ago)

EKRK 301050Z AUTO 14009KT 9999 FEW012/// BKN120/// 18/14 Q1007

Closest aviation forecast (TAF) to Måløv Airfield UL

Closest forecast is Copenhagen Kastrup Airport, 15.0 nm (27.9 km) ESE.

2024/05/30 06:30 (retrieved 5 hours ago)

TAF EKCH 300508Z 3006/3106 13012KT 9999 FEW020 BKN040 TEMPO 3006/3007 4000 SHRA BR BKN012 BKN020CB TEMPO 3007/3009 BKN012 FEW020CB TEMPO 3009/3024 FEW020CB TEMPO 3100/3106 BKN008 SCT020CB